sensor_id;sensor_type;location;lat;lon;timestamp;P1;durP1;ratioP1;P2;durP2;ratioP2
75689;SDS011;64303;53.118;9.044;2024-03-02T00:00:14;21.42;;;17.23;;
75689;SDS011;64303;53.118;9.044;2024-03-02T00:03:01;22.25;;;19.92;;
75689;SDS011;64303;53.118;9.044;2024-03-02T00:05:29;21.02;;;16.13;;
75689;SDS011;64303;53.118;9.044;2024-03-02T00:07:56;22.05;;;18.92;;
75689;SDS011;64303;53.118;9.044;2024-03-02T00:10:25;17.25;;;12.50;;
75689;SDS011;64303;53.118;9.044;2024-03-02T00:12:54;18.15;;;15.40;;
75689;SDS011;64303;53.118;9.044;2024-03-02T00:15:34;17.70;;;15.95;;
75689;SDS011;64303;53.118;9.044;2024-03-02T00:18:08;19.65;;;16.67;;
75689;SDS011;64303;53.118;9.044;2024-03-02T00:20:36;17.73;;;12.52;;
75689;SDS011;64303;53.118;9.044;2024-03-02T00:23:03;16.88;;;15.18;;
75689;SDS011;64303;53.118;9.044;2024-03-02T00:25:35;18.67;;;16.73;;
75689;SDS011;64303;53.118;9.044;2024-03-02T00:28:04;17.08;;;15.13;;
75689;SDS011;64303;53.118;9.044;2024-03-02T00:30:39;16.83;;;15.00;;
75689;SDS011;64303;53.118;9.044;2024-03-02T00:33:30;17.73;;;11.93;;
75689;SDS011;64303;53.118;9.044;2024-03-02T00:35:59;17.95;;;16.23;;
75689;SDS011;64303;53.118;9.044;2024-03-02T00:38:26;17.80;;;15.00;;
75689;SDS011;64303;53.118;9.044;2024-03-02T00:40:54;16.73;;;14.75;;
75689;SDS011;64303;53.118;9.044;2024-03-02T00:46:13;14.45;;;11.32;;
75689;SDS011;64303;53.118;9.044;2024-03-02T00:48:46;15.85;;;11.52;;
75689;SDS011;64303;53.118;9.044;2024-03-02T00:51:16;17.20;;;13.88;;
75689;SDS011;64303;53.118;9.044;2024-03-02T00:53:43;19.80;;;16.05;;
75689;SDS011;64303;53.118;9.044;2024-03-02T00:56:10;19.15;;;17.17;;
75689;SDS011;64303;53.118;9.044;2024-03-02T00:58:37;17.92;;;15.52;;
75689;SDS011;64303;53.118;9.044;2024-03-02T01:01:04;20.20;;;13.82;;
75689;SDS011;64303;53.118;9.044;2024-03-02T01:03:32;17.38;;;15.45;;
75689;SDS011;64303;53.118;9.044;2024-03-02T01:05:59;18.20;;;16.42;;
75689;SDS011;64303;53.118;9.044;2024-03-02T01:08:27;17.15;;;14.40;;
75689;SDS011;64303;53.118;9.044;2024-03-02T01:10:54;22.60;;;16.00;;
75689;SDS011;64303;53.118;9.044;2024-03-02T01:13:21;16.27;;;11.43;;
75689;SDS011;64303;53.118;9.044;2024-03-02T01:15:48;15.65;;;11.25;;
75689;SDS011;64303;53.118;9.044;2024-03-02T01:18:14;19.60;;;17.00;;
75689;SDS011;64303;53.118;9.044;2024-03-02T01:20:41;20.98;;;18.08;;
75689;SDS011;64303;53.118;9.044;2024-03-02T01:23:08;20.05;;;17.00;;
75689;SDS011;64303;53.118;9.044;2024-03-02T01:25:36;19.80;;;16.60;;
75689;SDS011;64303;53.118;9.044;2024-03-02T01:28:03;18.90;;;17.08;;
75689;SDS011;64303;53.118;9.044;2024-03-02T01:30:30;16.25;;;14.07;;
75689;SDS011;64303;53.118;9.044;2024-03-02T01:32:57;18.15;;;16.05;;
75689;SDS011;64303;53.118;9.044;2024-03-02T01:35:24;20.30;;;16.00;;
75689;SDS011;64303;53.118;9.044;2024-03-02T01:37:51;18.67;;;16.75;;
75689;SDS011;64303;53.118;9.044;2024-03-02T01:40:18;18.63;;;14.95;;
75689;SDS011;64303;53.118;9.044;2024-03-02T01:42:46;19.05;;;16.40;;
75689;SDS011;64303;53.118;9.044;2024-03-02T01:47:40;17.42;;;15.82;;
75689;SDS011;64303;53.118;9.044;2024-03-02T01:50:07;17.25;;;11.95;;
75689;SDS011;64303;53.118;9.044;2024-03-02T01:52:34;22.23;;;19.90;;
75689;SDS011;64303;53.118;9.044;2024-03-02T01:55:01;17.30;;;15.35;;
75689;SDS011;64303;53.118;9.044;2024-03-02T01:57:29;17.75;;;15.95;;
75689;SDS011;64303;53.118;9.044;2024-03-02T01:59:57;16.90;;;15.07;;
75689;SDS011;64303;53.118;9.044;2024-03-02T02:02:24;19.55;;;16.05;;
75689;SDS011;64303;53.118;9.044;2024-03-02T02:04:51;20.10;;;17.63;;
75689;SDS011;64303;53.118;9.044;2024-03-02T02:07:17;18.40;;;15.35;;
75689;SDS011;64303;53.118;9.044;2024-03-02T02:09:44;15.50;;;13.93;;
75689;SDS011;64303;53.118;9.044;2024-03-02T02:12:11;20.73;;;17.13;;
75689;SDS011;64303;53.118;9.044;2024-03-02T02:14:38;20.70;;;16.98;;
75689;SDS011;64303;53.118;9.044;2024-03-02T02:17:07;20.63;;;16.60;;
75689;SDS011;64303;53.118;9.044;2024-03-02T02:19:33;19.05;;;16.58;;
75689;SDS011;64303;53.118;9.044;2024-03-02T02:22:01;17.48;;;14.50;;
75689;SDS011;64303;53.118;9.044;2024-03-02T02:24:28;18.50;;;15.45;;
75689;SDS011;64303;53.118;9.044;2024-03-02T02:26:55;19.85;;;16.17;;
75689;SDS011;64303;53.118;9.044;2024-03-02T02:29:21;19.85;;;16.25;;
75689;SDS011;64303;53.118;9.044;2024-03-02T02:31:48;18.02;;;15.38;;
75689;SDS011;64303;53.118;9.044;2024-03-02T02:34:15;17.98;;;14.57;;
75689;SDS011;64303;53.118;9.044;2024-03-02T02:36:41;18.25;;;15.65;;
75689;SDS011;64303;53.118;9.044;2024-03-02T02:39:11;18.13;;;14.52;;
75689;SDS011;64303;53.118;9.044;2024-03-02T02:41:39;19.70;;;15.55;;
75689;SDS011;64303;53.118;9.044;2024-03-02T02:44:06;18.48;;;14.13;;
75689;SDS011;64303;53.118;9.044;2024-03-02T02:46:33;20.02;;;16.85;;
75689;SDS011;64303;53.118;9.044;2024-03-02T02:48:59;16.58;;;13.25;;
75689;SDS011;64303;53.118;9.044;2024-03-02T02:51:26;21.08;;;17.23;;
75689;SDS011;64303;53.118;9.044;2024-03-02T02:53:53;17.75;;;15.88;;
75689;SDS011;64303;53.118;9.044;2024-03-02T02:56:21;19.75;;;16.88;;
75689;SDS011;64303;53.118;9.044;2024-03-02T02:58:47;19.70;;;17.67;;
75689;SDS011;64303;53.118;9.044;2024-03-02T03:01:14;21.08;;;15.75;;
75689;SDS011;64303;53.118;9.044;2024-03-02T03:03:42;19.65;;;15.25;;
75689;SDS011;64303;53.118;9.044;2024-03-02T03:06:09;19.25;;;16.08;;
75689;SDS011;64303;53.118;9.044;2024-03-02T03:08:35;18.55;;;13.38;;
75689;SDS011;64303;53.118;9.044;2024-03-02T03:11:02;20.15;;;15.30;;
75689;SDS011;64303;53.118;9.044;2024-03-02T03:13:31;17.83;;;15.88;;
75689;SDS011;64303;53.118;9.044;2024-03-02T03:15:57;21.05;;;15.63;;
75689;SDS011;64303;53.118;9.044;2024-03-02T03:18:24;18.17;;;16.10;;
75689;SDS011;64303;53.118;9.044;2024-03-02T03:20:51;19.55;;;16.80;;
75689;SDS011;64303;53.118;9.044;2024-03-02T03:23:18;18.77;;;16.13;;
75689;SDS011;64303;53.118;9.044;2024-03-02T03:25:44;16.75;;;14.48;;
75689;SDS011;64303;53.118;9.044;2024-03-02T03:28:11;19.02;;;16.40;;
75689;SDS011;64303;53.118;9.044;2024-03-02T03:30:39;19.20;;;14.70;;
75689;SDS011;64303;53.118;9.044;2024-03-02T03:33:06;17.10;;;15.23;;
75689;SDS011;64303;53.118;9.044;2024-03-02T03:35:33;19.33;;;15.98;;
75689;SDS011;64303;53.118;9.044;2024-03-02T03:38:00;18.52;;;16.58;;
75689;SDS011;64303;53.118;9.044;2024-03-02T03:40:26;18.73;;;15.80;;
75689;SDS011;64303;53.118;9.044;2024-03-02T03:42:53;17.63;;;14.82;;
75689;SDS011;64303;53.118;9.044;2024-03-02T03:47:52;20.02;;;16.80;;
75689;SDS011;64303;53.118;9.044;2024-03-02T03:55:12;16.63;;;14.52;;
75689;SDS011;64303;53.118;9.044;2024-03-02T03:57:39;19.58;;;15.18;;
75689;SDS011;64303;53.118;9.044;2024-03-02T04:00:06;16.77;;;13.57;;
75689;SDS011;64303;53.118;9.044;2024-03-02T04:02:38;18.65;;;15.82;;
75689;SDS011;64303;53.118;9.044;2024-03-02T04:05:07;17.23;;;15.43;;
75689;SDS011;64303;53.118;9.044;2024-03-02T04:07:36;15.73;;;13.68;;
75689;SDS011;64303;53.118;9.044;2024-03-02T04:10:06;17.00;;;12.70;;
75689;SDS011;64303;53.118;9.044;2024-03-02T04:12:34;17.15;;;15.32;;
75689;SDS011;64303;53.118;9.044;2024-03-02T04:15:02;16.35;;;11.27;;
75689;SDS011;64303;53.118;9.044;2024-03-02T04:17:30;14.90;;;11.57;;
75689;SDS011;64303;53.118;9.044;2024-03-02T04:19:58;15.80;;;13.88;;
75689;SDS011;64303;53.118;9.044;2024-03-02T04:22:26;17.02;;;15.23;;
75689;SDS011;64303;53.118;9.044;2024-03-02T04:24:53;15.75;;;13.88;;
75689;SDS011;64303;53.118;9.044;2024-03-02T04:27:20;18.27;;;16.55;;
75689;SDS011;64303;53.118;9.044;2024-03-02T04:29:46;15.75;;;13.52;;
75689;SDS011;64303;53.118;9.044;2024-03-02T04:32:13;14.35;;;12.73;;
75689;SDS011;64303;53.118;9.044;2024-03-02T04:34:39;16.75;;;10.23;;
75689;SDS011;64303;53.118;9.044;2024-03-02T04:37:06;15.77;;;14.43;;
75689;SDS011;64303;53.118;9.044;2024-03-02T04:39:35;15.35;;;12.65;;
75689;SDS011;64303;53.118;9.044;2024-03-02T04:42:02;16.92;;;14.77;;
75689;SDS011;64303;53.118;9.044;2024-03-02T04:44:29;14.02;;;12.00;;
75689;SDS011;64303;53.118;9.044;2024-03-02T04:46:55;15.73;;;14.00;;
75689;SDS011;64303;53.118;9.044;2024-03-02T04:49:23;15.68;;;13.98;;
75689;SDS011;64303;53.118;9.044;2024-03-02T04:51:49;18.00;;;16.27;;
75689;SDS011;64303;53.118;9.044;2024-03-02T04:54:16;18.15;;;13.30;;
75689;SDS011;64303;53.118;9.044;2024-03-02T04:56:44;16.35;;;14.00;;
75689;SDS011;64303;53.118;9.044;2024-03-02T04:59:15;15.10;;;13.23;;
75689;SDS011;64303;53.118;9.044;2024-03-02T05:01:42;14.38;;;10.95;;
75689;SDS011;64303;53.118;9.044;2024-03-02T05:04:09;17.83;;;14.75;;
75689;SDS011;64303;53.118;9.044;2024-03-02T05:06:36;16.55;;;14.55;;
75689;SDS011;64303;53.118;9.044;2024-03-02T05:09:04;15.93;;;14.18;;
75689;SDS011;64303;53.118;9.044;2024-03-02T05:11:31;18.80;;;17.02;;
75689;SDS011;64303;53.118;9.044;2024-03-02T05:14:20;15.80;;;14.20;;
75689;SDS011;64303;53.118;9.044;2024-03-02T05:16:45;16.77;;;15.13;;
75689;SDS011;64303;53.118;9.044;2024-03-02T05:19:12;15.90;;;13.75;;
75689;SDS011;64303;53.118;9.044;2024-03-02T05:21:38;17.13;;;15.32;;
75689;SDS011;64303;53.118;9.044;2024-03-02T05:24:05;16.52;;;12.48;;
75689;SDS011;64303;53.118;9.044;2024-03-02T05:26:32;17.98;;;15.32;;
75689;SDS011;64303;53.118;9.044;2024-03-02T05:28:59;16.90;;;15.13;;
75689;SDS011;64303;53.118;9.044;2024-03-02T05:31:27;16.48;;;14.88;;
75689;SDS011;64303;53.118;9.044;2024-03-02T05:33:54;15.25;;;10.45;;
75689;SDS011;64303;53.118;9.044;2024-03-02T05:36:20;19.27;;;17.00;;
75689;SDS011;64303;53.118;9.044;2024-03-02T05:38:47;17.63;;;15.82;;
75689;SDS011;64303;53.118;9.044;2024-03-02T05:41:14;16.38;;;14.63;;
75689;SDS011;64303;53.118;9.044;2024-03-02T05:43:40;20.95;;;18.63;;
75689;SDS011;64303;53.118;9.044;2024-03-02T05:46:07;16.70;;;14.43;;
75689;SDS011;64303;53.118;9.044;2024-03-02T05:48:35;17.25;;;12.70;;
75689;SDS011;64303;53.118;9.044;2024-03-02T05:51:02;22.00;;;16.42;;
75689;SDS011;64303;53.118;9.044;2024-03-02T05:53:29;19.38;;;16.45;;
75689;SDS011;64303;53.118;9.044;2024-03-02T05:55:55;19.30;;;14.60;;
75689;SDS011;64303;53.118;9.044;2024-03-02T05:58:22;22.15;;;17.48;;
75689;SDS011;64303;53.118;9.044;2024-03-02T06:00:59;17.65;;;15.18;;
75689;SDS011;64303;53.118;9.044;2024-03-02T06:03:26;15.75;;;13.60;;
75689;SDS011;64303;53.118;9.044;2024-03-02T06:05:55;19.92;;;15.55;;
75689;SDS011;64303;53.118;9.044;2024-03-02T06:08:22;18.55;;;16.65;;
75689;SDS011;64303;53.118;9.044;2024-03-02T06:10:48;17.35;;;15.10;;
75689;SDS011;64303;53.118;9.044;2024-03-02T06:13:15;16.65;;;11.93;;
75689;SDS011;64303;53.118;9.044;2024-03-02T06:15:41;19.33;;;15.43;;
75689;SDS011;64303;53.118;9.044;2024-03-02T06:18:09;20.75;;;18.55;;
75689;SDS011;64303;53.118;9.044;2024-03-02T06:20:35;22.95;;;17.25;;
75689;SDS011;64303;53.118;9.044;2024-03-02T06:23:04;18.10;;;14.93;;
75689;SDS011;64303;53.118;9.044;2024-03-02T06:27:57;26.08;;;17.55;;
75689;SDS011;64303;53.118;9.044;2024-03-02T06:30:24;20.02;;;15.93;;
75689;SDS011;64303;53.118;9.044;2024-03-02T06:32:50;21.48;;;16.55;;
75689;SDS011;64303;53.118;9.044;2024-03-02T06:35:17;18.98;;;15.77;;
75689;SDS011;64303;53.118;9.044;2024-03-02T06:37:44;20.80;;;18.27;;
75689;SDS011;64303;53.118;9.044;2024-03-02T06:40:12;20.65;;;16.55;;
75689;SDS011;64303;53.118;9.044;2024-03-02T06:42:38;20.15;;;17.67;;
75689;SDS011;64303;53.118;9.044;2024-03-02T06:45:05;21.48;;;19.17;;
75689;SDS011;64303;53.118;9.044;2024-03-02T06:47:32;22.30;;;15.25;;
75689;SDS011;64303;53.118;9.044;2024-03-02T06:49:59;21.92;;;17.95;;
75689;SDS011;64303;53.118;9.044;2024-03-02T06:52:26;19.67;;;16.73;;
75689;SDS011;64303;53.118;9.044;2024-03-02T06:54:53;19.58;;;16.15;;
75689;SDS011;64303;53.118;9.044;2024-03-02T06:57:21;19.35;;;15.50;;
75689;SDS011;64303;53.118;9.044;2024-03-02T06:59:47;20.65;;;15.70;;
75689;SDS011;64303;53.118;9.044;2024-03-02T07:02:16;20.88;;;18.65;;
75689;SDS011;64303;53.118;9.044;2024-03-02T07:04:42;19.92;;;13.45;;
75689;SDS011;64303;53.118;9.044;2024-03-02T07:07:10;18.20;;;15.43;;
75689;SDS011;64303;53.118;9.044;2024-03-02T07:09:37;24.15;;;19.33;;
75689;SDS011;64303;53.118;9.044;2024-03-02T07:12:04;19.83;;;17.45;;
75689;SDS011;64303;53.118;9.044;2024-03-02T07:14:32;24.02;;;17.85;;
75689;SDS011;64303;53.118;9.044;2024-03-02T07:17:33;23.35;;;17.02;;
75689;SDS011;64303;53.118;9.044;2024-03-02T07:20:00;21.20;;;17.33;;
75689;SDS011;64303;53.118;9.044;2024-03-02T07:22:27;18.88;;;16.38;;
75689;SDS011;64303;53.118;9.044;2024-03-02T07:24:53;16.65;;;10.23;;
75689;SDS011;64303;53.118;9.044;2024-03-02T07:27:21;23.13;;;17.73;;
75689;SDS011;64303;53.118;9.044;2024-03-02T07:29:49;21.00;;;16.02;;
75689;SDS011;64303;53.118;9.044;2024-03-02T07:32:16;21.55;;;17.17;;
75689;SDS011;64303;53.118;9.044;2024-03-02T07:34:42;18.88;;;16.77;;
75689;SDS011;64303;53.118;9.044;2024-03-02T07:37:09;24.15;;;16.98;;
75689;SDS011;64303;53.118;9.044;2024-03-02T07:39:35;20.75;;;16.50;;
75689;SDS011;64303;53.118;9.044;2024-03-02T07:42:02;22.33;;;17.67;;
75689;SDS011;64303;53.118;9.044;2024-03-02T07:44:29;17.13;;;14.95;;
75689;SDS011;64303;53.118;9.044;2024-03-02T07:46:57;20.15;;;18.05;;
75689;SDS011;64303;53.118;9.044;2024-03-02T07:49:24;19.65;;;14.70;;
75689;SDS011;64303;53.118;9.044;2024-03-02T07:51:51;21.73;;;13.80;;
75689;SDS011;64303;53.118;9.044;2024-03-02T07:54:17;20.77;;;18.50;;
75689;SDS011;64303;53.118;9.044;2024-03-02T07:56:44;20.85;;;18.55;;
75689;SDS011;64303;53.118;9.044;2024-03-02T07:59:11;20.52;;;17.60;;
75689;SDS011;64303;53.118;9.044;2024-03-02T08:01:38;16.92;;;12.68;;
75689;SDS011;64303;53.118;9.044;2024-03-02T08:04:06;19.23;;;16.23;;
75689;SDS011;64303;53.118;9.044;2024-03-02T08:06:33;22.60;;;16.80;;
75689;SDS011;64303;53.118;9.044;2024-03-02T08:09:00;18.15;;;15.95;;
75689;SDS011;64303;53.118;9.044;2024-03-02T08:11:27;19.45;;;15.90;;
75689;SDS011;64303;53.118;9.044;2024-03-02T08:13:54;17.30;;;15.48;;
75689;SDS011;64303;53.118;9.044;2024-03-02T08:16:21;18.50;;;14.88;;
75689;SDS011;64303;53.118;9.044;2024-03-02T08:18:50;18.40;;;13.20;;
75689;SDS011;64303;53.118;9.044;2024-03-02T08:21:18;19.48;;;15.68;;
75689;SDS011;64303;53.118;9.044;2024-03-02T08:23:45;17.35;;;14.18;;
75689;SDS011;64303;53.118;9.044;2024-03-02T08:26:11;16.55;;;12.00;;
75689;SDS011;64303;53.118;9.044;2024-03-02T08:28:38;17.77;;;15.88;;
75689;SDS011;64303;53.118;9.044;2024-03-02T08:31:06;18.30;;;15.82;;
75689;SDS011;64303;53.118;9.044;2024-03-02T08:33:32;19.48;;;16.10;;
75689;SDS011;64303;53.118;9.044;2024-03-02T08:36:00;17.23;;;10.82;;
75689;SDS011;64303;53.118;9.044;2024-03-02T08:38:28;18.00;;;15.15;;
75689;SDS011;64303;53.118;9.044;2024-03-02T08:40:55;19.42;;;15.18;;
75689;SDS011;64303;53.118;9.044;2024-03-02T08:43:22;17.63;;;15.50;;
75689;SDS011;64303;53.118;9.044;2024-03-02T08:45:49;17.08;;;14.52;;
75689;SDS011;64303;53.118;9.044;2024-03-02T08:48:16;18.05;;;15.00;;
75689;SDS011;64303;53.118;9.044;2024-03-02T08:50:43;21.40;;;19.33;;
75689;SDS011;64303;53.118;9.044;2024-03-02T08:53:09;18.50;;;15.23;;
75689;SDS011;64303;53.118;9.044;2024-03-02T08:55:37;18.70;;;11.20;;
75689;SDS011;64303;53.118;9.044;2024-03-02T08:58:04;17.45;;;15.57;;
75689;SDS011;64303;53.118;9.044;2024-03-02T09:00:31;21.95;;;17.02;;
75689;SDS011;64303;53.118;9.044;2024-03-02T09:02:58;17.13;;;14.05;;
75689;SDS011;64303;53.118;9.044;2024-03-02T09:05:24;18.45;;;16.02;;
75689;SDS011;64303;53.118;9.044;2024-03-02T09:07:51;20.73;;;15.63;;
75689;SDS011;64303;53.118;9.044;2024-03-02T09:10:18;18.77;;;15.70;;
75689;SDS011;64303;53.118;9.044;2024-03-02T09:12:45;16.60;;;14.85;;
75689;SDS011;64303;53.118;9.044;2024-03-02T09:17:39;19.38;;;14.95;;
75689;SDS011;64303;53.118;9.044;2024-03-02T09:20:06;19.52;;;14.85;;
75689;SDS011;64303;53.118;9.044;2024-03-02T09:22:33;19.33;;;16.05;;
75689;SDS011;64303;53.118;9.044;2024-03-02T09:25:00;17.73;;;14.80;;
75689;SDS011;64303;53.118;9.044;2024-03-02T09:27:26;18.45;;;14.23;;
75689;SDS011;64303;53.118;9.044;2024-03-02T09:29:54;15.50;;;13.38;;
75689;SDS011;64303;53.118;9.044;2024-03-02T09:32:21;18.73;;;14.43;;
75689;SDS011;64303;53.118;9.044;2024-03-02T09:34:49;18.63;;;14.60;;
75689;SDS011;64303;53.118;9.044;2024-03-02T09:37:15;20.00;;;16.45;;
75689;SDS011;64303;53.118;9.044;2024-03-02T09:39:43;17.80;;;16.00;;
75689;SDS011;64303;53.118;9.044;2024-03-02T09:42:09;21.25;;;15.90;;
75689;SDS011;64303;53.118;9.044;2024-03-02T09:44:36;19.42;;;16.77;;
75689;SDS011;64303;53.118;9.044;2024-03-02T09:47:06;19.40;;;14.70;;
75689;SDS011;64303;53.118;9.044;2024-03-02T09:49:33;15.65;;;13.90;;
75689;SDS011;64303;53.118;9.044;2024-03-02T09:52:00;17.13;;;13.85;;
75689;SDS011;64303;53.118;9.044;2024-03-02T09:54:27;17.10;;;13.93;;
75689;SDS011;64303;53.118;9.044;2024-03-02T09:56:54;17.33;;;15.13;;
75689;SDS011;64303;53.118;9.044;2024-03-02T09:59:21;16.13;;;12.90;;
75689;SDS011;64303;53.118;9.044;2024-03-02T10:01:57;14.85;;;12.77;;
75689;SDS011;64303;53.118;9.044;2024-03-02T10:04:27;18.35;;;13.45;;
75689;SDS011;64303;53.118;9.044;2024-03-02T10:07:09;15.95;;;11.25;;
75689;SDS011;64303;53.118;9.044;2024-03-02T10:09:37;17.38;;;13.95;;
75689;SDS011;64303;53.118;9.044;2024-03-02T10:12:04;17.77;;;15.38;;
75689;SDS011;64303;53.118;9.044;2024-03-02T10:14:32;18.40;;;16.17;;
75689;SDS011;64303;53.118;9.044;2024-03-02T10:17:01;16.55;;;14.88;;
75689;SDS011;64303;53.118;9.044;2024-03-02T10:19:30;13.88;;;12.20;;
75689;SDS011;64303;53.118;9.044;2024-03-02T10:21:58;14.38;;;12.48;;
75689;SDS011;64303;53.118;9.044;2024-03-02T10:24:25;16.48;;;12.65;;
75689;SDS011;64303;53.118;9.044;2024-03-02T10:26:52;15.05;;;13.18;;
75689;SDS011;64303;53.118;9.044;2024-03-02T10:29:19;14.18;;;11.88;;
75689;SDS011;64303;53.118;9.044;2024-03-02T10:31:46;18.85;;;13.88;;
75689;SDS011;64303;53.118;9.044;2024-03-02T10:34:13;16.55;;;14.00;;
75689;SDS011;64303;53.118;9.044;2024-03-02T10:36:43;14.30;;;11.68;;
75689;SDS011;64303;53.118;9.044;2024-03-02T10:39:10;15.18;;;9.70;;
75689;SDS011;64303;53.118;9.044;2024-03-02T10:41:39;16.38;;;13.15;;
75689;SDS011;64303;53.118;9.044;2024-03-02T10:44:06;15.05;;;10.75;;
75689;SDS011;64303;53.118;9.044;2024-03-02T10:46:33;14.20;;;9.32;;
75689;SDS011;64303;53.118;9.044;2024-03-02T10:49:01;16.35;;;12.05;;
75689;SDS011;64303;53.118;9.044;2024-03-02T10:51:29;14.75;;;13.35;;
75689;SDS011;64303;53.118;9.044;2024-03-02T10:53:59;14.95;;;10.00;;
75689;SDS011;64303;53.118;9.044;2024-03-02T10:56:27;16.60;;;11.98;;
75689;SDS011;64303;53.118;9.044;2024-03-02T11:01:21;13.95;;;10.40;;
75689;SDS011;64303;53.118;9.044;2024-03-02T11:03:49;13.20;;;11.57;;
75689;SDS011;64303;53.118;9.044;2024-03-02T11:06:15;14.07;;;11.73;;
75689;SDS011;64303;53.118;9.044;2024-03-02T11:08:43;14.65;;;8.93;;
75689;SDS011;64303;53.118;9.044;2024-03-02T11:11:14;14.93;;;12.93;;
75689;SDS011;64303;53.118;9.044;2024-03-02T11:13:42;11.25;;;9.88;;
75689;SDS011;64303;53.118;9.044;2024-03-02T11:16:09;11.45;;;10.18;;
75689;SDS011;64303;53.118;9.044;2024-03-02T11:18:39;13.38;;;10.68;;
75689;SDS011;64303;53.118;9.044;2024-03-02T11:21:06;12.98;;;10.88;;
75689;SDS011;64303;53.118;9.044;2024-03-02T11:23:33;12.77;;;11.20;;
75689;SDS011;64303;53.118;9.044;2024-03-02T11:28:48;10.38;;;8.85;;
75689;SDS011;64303;53.118;9.044;2024-03-02T11:31:14;13.32;;;11.18;;
75689;SDS011;64303;53.118;9.044;2024-03-02T11:33:41;13.60;;;10.75;;
75689;SDS011;64303;53.118;9.044;2024-03-02T11:36:08;11.07;;;9.80;;
75689;SDS011;64303;53.118;9.044;2024-03-02T11:38:35;11.55;;;10.35;;
75689;SDS011;64303;53.118;9.044;2024-03-02T11:41:02;12.95;;;9.23;;
75689;SDS011;64303;53.118;9.044;2024-03-02T11:43:38;11.48;;;10.30;;
75689;SDS011;64303;53.118;9.044;2024-03-02T11:46:05;10.65;;;9.63;;
75689;SDS011;64303;53.118;9.044;2024-03-02T11:48:34;12.10;;;10.98;;
75689;SDS011;64303;53.118;9.044;2024-03-02T11:51:01;10.68;;;9.68;;
75689;SDS011;64303;53.118;9.044;2024-03-02T11:53:28;11.40;;;10.27;;
75689;SDS011;64303;53.118;9.044;2024-03-02T11:55:57;10.52;;;9.48;;
75689;SDS011;64303;53.118;9.044;2024-03-02T11:58:24;11.25;;;10.07;;
75689;SDS011;64303;53.118;9.044;2024-03-02T12:00:53;9.05;;;5.93;;
75689;SDS011;64303;53.118;9.044;2024-03-02T12:03:22;9.60;;;6.18;;
75689;SDS011;64303;53.118;9.044;2024-03-02T12:05:50;8.70;;;6.65;;
75689;SDS011;64303;53.118;9.044;2024-03-02T12:10:55;9.65;;;8.45;;
75689;SDS011;64303;53.118;9.044;2024-03-02T12:13:22;7.18;;;6.47;;
75689;SDS011;64303;53.118;9.044;2024-03-02T12:15:52;9.52;;;8.27;;
75689;SDS011;64303;53.118;9.044;2024-03-02T12:18:21;11.18;;;9.77;;
75689;SDS011;64303;53.118;9.044;2024-03-02T12:20:48;9.18;;;8.30;;
75689;SDS011;64303;53.118;9.044;2024-03-02T12:23:16;9.32;;;8.48;;
75689;SDS011;64303;53.118;9.044;2024-03-02T12:25:42;9.95;;;9.05;;
75689;SDS011;64303;53.118;9.044;2024-03-02T12:28:09;8.15;;;5.63;;
75689;SDS011;64303;53.118;9.044;2024-03-02T12:30:36;9.13;;;8.10;;
75689;SDS011;64303;53.118;9.044;2024-03-02T12:33:04;10.00;;;9.15;;
75689;SDS011;64303;53.118;9.044;2024-03-02T12:35:31;9.70;;;8.70;;
75689;SDS011;64303;53.118;9.044;2024-03-02T12:37:58;8.95;;;4.72;;
75689;SDS011;64303;53.118;9.044;2024-03-02T12:40:24;9.55;;;5.78;;
75689;SDS011;64303;53.118;9.044;2024-03-02T12:42:52;11.15;;;9.38;;
75689;SDS011;64303;53.118;9.044;2024-03-02T12:45:20;8.60;;;7.47;;
75689;SDS011;64303;53.118;9.044;2024-03-02T12:47:49;8.52;;;6.28;;
75689;SDS011;64303;53.118;9.044;2024-03-02T12:50:17;8.25;;;4.25;;
75689;SDS011;64303;53.118;9.044;2024-03-02T12:52:50;10.63;;;9.50;;
75689;SDS011;64303;53.118;9.044;2024-03-02T12:55:17;8.10;;;6.93;;
75689;SDS011;64303;53.118;9.044;2024-03-02T12:57:44;10.13;;;9.20;;
75689;SDS011;64303;53.118;9.044;2024-03-02T13:00:11;9.68;;;8.23;;
75689;SDS011;64303;53.118;9.044;2024-03-02T13:02:40;11.40;;;10.50;;
75689;SDS011;64303;53.118;9.044;2024-03-02T13:05:07;8.25;;;7.50;;
75689;SDS011;64303;53.118;9.044;2024-03-02T13:07:38;8.88;;;7.97;;
75689;SDS011;64303;53.118;9.044;2024-03-02T13:10:06;9.18;;;8.38;;
75689;SDS011;64303;53.118;9.044;2024-03-02T13:12:34;8.32;;;7.53;;
75689;SDS011;64303;53.118;9.044;2024-03-02T13:17:29;9.00;;;8.15;;
75689;SDS011;64303;53.118;9.044;2024-03-02T13:19:56;9.50;;;8.55;;
75689;SDS011;64303;53.118;9.044;2024-03-02T13:22:24;10.20;;;9.20;;
75689;SDS011;64303;53.118;9.044;2024-03-02T13:24:52;8.93;;;8.02;;
75689;SDS011;64303;53.118;9.044;2024-03-02T13:27:20;7.95;;;7.15;;
75689;SDS011;64303;53.118;9.044;2024-03-02T13:29:47;9.07;;;8.38;;
75689;SDS011;64303;53.118;9.044;2024-03-02T13:32:14;8.45;;;7.72;;
75689;SDS011;64303;53.118;9.044;2024-03-02T13:34:40;7.50;;;6.55;;
75689;SDS011;64303;53.118;9.044;2024-03-02T13:37:07;7.82;;;5.20;;
75689;SDS011;64303;53.118;9.044;2024-03-02T13:39:34;10.38;;;9.20;;
75689;SDS011;64303;53.118;9.044;2024-03-02T13:42:08;9.93;;;8.18;;
75689;SDS011;64303;53.118;9.044;2024-03-02T13:44:35;11.05;;;9.95;;
75689;SDS011;64303;53.118;9.044;2024-03-02T13:47:03;9.43;;;8.50;;
75689;SDS011;64303;53.118;9.044;2024-03-02T13:49:30;8.10;;;5.93;;
75689;SDS011;64303;53.118;9.044;2024-03-02T13:52:01;10.40;;;9.57;;
75689;SDS011;64303;53.118;9.044;2024-03-02T13:54:36;8.20;;;7.22;;
75689;SDS011;64303;53.118;9.044;2024-03-02T13:57:03;8.57;;;7.78;;
75689;SDS011;64303;53.118;9.044;2024-03-02T13:59:32;9.18;;;7.10;;
75689;SDS011;64303;53.118;9.044;2024-03-02T14:01:59;8.00;;;7.30;;
75689;SDS011;64303;53.118;9.044;2024-03-02T14:04:25;9.45;;;8.55;;
75689;SDS011;64303;53.118;9.044;2024-03-02T14:06:52;8.40;;;7.65;;
75689;SDS011;64303;53.118;9.044;2024-03-02T14:09:19;6.32;;;5.10;;
75689;SDS011;64303;53.118;9.044;2024-03-02T14:11:46;8.15;;;7.35;;
75689;SDS011;64303;53.118;9.044;2024-03-02T14:14:14;8.68;;;7.88;;
75689;SDS011;64303;53.118;9.044;2024-03-02T14:16:42;10.20;;;9.45;;
75689;SDS011;64303;53.118;9.044;2024-03-02T14:19:09;10.15;;;9.25;;
75689;SDS011;64303;53.118;9.044;2024-03-02T14:21:36;9.43;;;8.52;;
75689;SDS011;64303;53.118;9.044;2024-03-02T14:24:03;7.15;;;4.78;;
75689;SDS011;64303;53.118;9.044;2024-03-02T14:26:32;8.50;;;7.47;;
75689;SDS011;64303;53.118;9.044;2024-03-02T14:28:58;8.30;;;5.78;;
75689;SDS011;64303;53.118;9.044;2024-03-02T14:33:54;8.15;;;7.43;;
75689;SDS011;64303;53.118;9.044;2024-03-02T14:36:21;8.85;;;8.05;;
75689;SDS011;64303;53.118;9.044;2024-03-02T14:38:48;8.80;;;8.00;;
75689;SDS011;64303;53.118;9.044;2024-03-02T14:41:15;9.45;;;8.55;;
75689;SDS011;64303;53.118;9.044;2024-03-02T14:43:41;9.40;;;8.35;;
75689;SDS011;64303;53.118;9.044;2024-03-02T14:46:08;8.35;;;7.43;;
75689;SDS011;64303;53.118;9.044;2024-03-02T14:48:34;8.90;;;7.88;;
75689;SDS011;64303;53.118;9.044;2024-03-02T14:51:03;9.38;;;5.90;;
75689;SDS011;64303;53.118;9.044;2024-03-02T14:53:30;10.82;;;9.77;;
75689;SDS011;64303;53.118;9.044;2024-03-02T14:55:57;9.77;;;8.35;;
75689;SDS011;64303;53.118;9.044;2024-03-02T14:58:24;8.02;;;7.22;;